createdAt,value
2022-08-22T00:00:24.816Z,15.02
2022-08-22T00:01:24.968Z,15.04
2022-08-22T00:02:26.242Z,14.97
2022-08-22T00:02:41.622Z,19.57
2022-08-22T00:02:46.132Z,16.91
2022-08-22T00:02:47.240Z,15.69
2022-08-22T00:02:53.141Z,17.90
2022-08-22T00:02:54.636Z,15.88
2022-08-22T00:03:08.734Z,15.72
2022-08-22T00:03:11.262Z,15.30
2022-08-22T00:03:11.929Z,16.89
2022-08-22T00:03:24.875Z,14.93
2022-08-22T00:04:24.892Z,14.94
2022-08-22T00:05:24.910Z,14.99
2022-08-22T00:06:24.931Z,14.93
2022-08-22T00:07:24.954Z,14.92
2022-08-22T00:08:24.969Z,14.94
2022-08-22T00:09:24.990Z,14.93
2022-08-22T00:10:25.775Z,15.00
2022-08-22T00:11:25.027Z,14.93
2022-08-22T00:12:25.048Z,14.92
2022-08-22T00:13:25.064Z,14.93
2022-08-22T00:14:25.084Z,14.87
2022-08-22T00:15:43.755Z,14.85
2022-08-22T00:16:25.124Z,14.81
2022-08-22T00:17:25.142Z,14.87
2022-08-22T00:18:25.161Z,14.93
2022-08-22T00:19:25.200Z,14.86
2022-08-22T00:20:28.133Z,14.79
2022-08-22T00:21:25.229Z,14.86
2022-08-22T00:22:25.241Z,14.92
2022-08-22T00:23:25.258Z,14.89
2022-08-22T00:24:25.277Z,14.90
2022-08-22T00:25:26.084Z,14.78
2022-08-22T00:26:25.318Z,14.73
2022-08-22T00:27:25.336Z,14.87
2022-08-22T00:28:25.356Z,14.81
2022-08-22T00:29:25.372Z,14.74
2022-08-22T00:30:25.392Z,14.78
2022-08-22T00:31:25.412Z,14.79
2022-08-22T00:32:25.431Z,14.74
2022-08-22T00:33:25.457Z,14.74
2022-08-22T00:34:25.467Z,14.68
2022-08-22T00:35:25.488Z,14.71
2022-08-22T00:36:25.507Z,14.71
2022-08-22T00:37:25.526Z,14.68
2022-08-22T00:38:25.546Z,14.68
2022-08-22T00:39:25.563Z,14.70
2022-08-22T00:40:25.586Z,14.70
2022-08-22T00:41:25.610Z,14.63
2022-08-22T00:42:31.454Z,14.74
2022-08-22T00:43:25.642Z,14.62
2022-08-22T00:44:25.671Z,14.66
2022-08-22T00:45:25.678Z,14.59
2022-08-22T00:46:25.698Z,14.66
2022-08-22T00:47:25.719Z,14.63
2022-08-22T00:48:25.737Z,14.67
2022-08-22T00:49:25.757Z,14.58
2022-08-22T00:50:25.774Z,14.61
2022-08-22T00:51:25.796Z,14.62
2022-08-22T00:52:25.812Z,14.53
2022-08-22T00:53:25.830Z,14.63
2022-08-22T00:54:25.851Z,14.67
2022-08-22T00:55:25.870Z,14.56
2022-08-22T00:56:25.889Z,14.51
2022-08-22T00:57:25.909Z,14.52
2022-08-22T00:58:25.930Z,14.55
2022-08-22T00:59:25.947Z,14.55
2022-08-22T01:00:25.967Z,14.59
2022-08-22T01:01:26.042Z,14.61
2022-08-22T01:02:26.004Z,14.58
2022-08-22T01:03:26.026Z,14.59
2022-08-22T01:04:26.041Z,14.51
2022-08-22T01:05:26.058Z,14.55
2022-08-22T01:06:26.080Z,14.51
2022-08-22T01:07:26.098Z,14.53
2022-08-22T01:08:26.119Z,14.55
2022-08-22T01:09:26.135Z,14.55
2022-08-22T01:10:26.155Z,14.45
2022-08-22T01:11:26.173Z,14.48
2022-08-22T01:12:26.192Z,14.48
2022-08-22T01:13:26.214Z,14.44
2022-08-22T01:14:35.014Z,14.48
2022-08-22T01:15:26.248Z,14.48
2022-08-22T01:16:26.269Z,14.44
2022-08-22T01:17:26.285Z,14.45
2022-08-22T01:18:26.306Z,14.52
2022-08-22T01:19:26.328Z,14.40
2022-08-22T01:20:26.346Z,14.49
2022-08-22T01:21:26.362Z,14.41
2022-08-22T01:22:26.389Z,14.38
2022-08-22T01:23:26.402Z,14.38
2022-08-22T01:24:26.421Z,14.33
2022-08-22T01:25:26.439Z,14.30
2022-08-22T01:26:26.458Z,14.33
2022-08-22T01:27:26.478Z,14.33
2022-08-22T01:28:26.494Z,14.31
2022-08-22T01:29:28.563Z,14.26
2022-08-22T01:30:26.546Z,14.38
2022-08-22T01:31:26.550Z,14.34
2022-08-22T01:32:26.572Z,14.23
2022-08-22T01:33:26.589Z,14.20
2022-08-22T01:34:26.607Z,14.22
2022-08-22T01:35:26.627Z,14.23
2022-08-22T01:36:26.646Z,14.26
2022-08-22T01:37:26.663Z,14.20
2022-08-22T01:38:26.682Z,14.20
2022-08-22T01:39:26.701Z,14.22
2022-08-22T01:40:27.204Z,14.20
2022-08-22T01:41:26.738Z,14.15
2022-08-22T01:42:26.757Z,14.20
2022-08-22T01:43:43.859Z,14.18
2022-08-22T01:44:26.799Z,14.13
2022-08-22T01:45:26.819Z,14.20
2022-08-22T01:46:26.833Z,14.12
2022-08-22T01:47:26.862Z,14.19
2022-08-22T01:48:26.873Z,14.22
2022-08-22T01:49:26.887Z,14.16
2022-08-22T01:50:26.908Z,14.19
2022-08-22T01:51:26.928Z,14.15
2022-08-22T01:52:26.948Z,14.15
2022-08-22T01:53:28.162Z,14.19
2022-08-22T01:54:26.982Z,14.11
2022-08-22T01:55:27.003Z,14.11
2022-08-22T01:56:27.020Z,14.11
2022-08-22T01:57:27.042Z,14.04
2022-08-22T01:58:27.062Z,14.08
2022-08-22T01:59:27.594Z,14.13
2022-08-22T02:00:34.688Z,14.08
2022-08-22T02:01:27.236Z,14.13
2022-08-22T02:02:27.136Z,14.05
2022-08-22T02:03:27.162Z,14.05
2022-08-22T02:04:27.172Z,14.03
2022-08-22T02:05:27.189Z,14.04
2022-08-22T02:06:27.209Z,14.07
2022-08-22T02:07:32.167Z,14.03
2022-08-22T02:08:27.247Z,14.01
2022-08-22T02:09:27.265Z,14.05
2022-08-22T02:10:27.282Z,14.00
2022-08-22T02:11:27.303Z,14.01
2022-08-22T02:12:27.321Z,14.00
2022-08-22T02:13:27.341Z,13.95
2022-08-22T02:14:27.359Z,13.95
2022-08-22T02:15:27.378Z,13.98
2022-08-22T02:16:27.398Z,13.98
2022-08-22T02:17:27.413Z,13.95
2022-08-22T02:18:27.433Z,14.01
2022-08-22T02:19:27.454Z,13.95
2022-08-22T02:20:27.478Z,13.93
2022-08-22T02:21:27.492Z,13.98
2022-08-22T02:22:27.508Z,13.95
2022-08-22T02:23:27.540Z,13.86
2022-08-22T02:24:27.559Z,13.86
2022-08-22T02:25:27.562Z,13.98
2022-08-22T02:26:27.585Z,13.86
2022-08-22T02:27:31.675Z,13.85
2022-08-22T02:28:27.621Z,13.95
2022-08-22T02:29:27.637Z,13.87
2022-08-22T02:30:27.658Z,13.93
2022-08-22T02:31:27.677Z,13.94
2022-08-22T02:32:27.695Z,13.80
2022-08-22T02:33:27.713Z,13.89
2022-08-22T02:34:27.733Z,13.91
2022-08-22T02:35:27.752Z,13.91
2022-08-22T02:36:27.768Z,13.89
2022-08-22T02:37:27.788Z,13.93
2022-08-22T02:38:27.808Z,13.86
2022-08-22T02:39:27.828Z,13.94
2022-08-22T02:40:27.844Z,13.82
2022-08-22T02:41:27.862Z,13.97
2022-08-22T02:42:27.880Z,13.95
2022-08-22T02:43:27.900Z,13.91
2022-08-22T02:44:27.919Z,13.85
2022-08-22T02:45:27.939Z,13.86
2022-08-22T02:46:27.954Z,13.83
2022-08-22T02:47:27.973Z,13.87
2022-08-22T02:48:27.992Z,13.91
2022-08-22T02:49:28.010Z,13.85
2022-08-22T02:50:28.030Z,13.82
2022-08-22T02:51:28.047Z,13.91
2022-08-22T02:52:28.067Z,13.89
2022-08-22T02:53:28.086Z,13.85
2022-08-22T02:54:28.104Z,13.79
2022-08-22T02:55:28.123Z,13.85
2022-08-22T02:56:28.141Z,13.87
2022-08-22T02:57:28.160Z,13.82
2022-08-22T02:58:28.180Z,13.91
2022-08-22T02:59:28.198Z,13.87
2022-08-22T03:00:32.560Z,13.95
2022-08-22T03:01:28.235Z,13.97
2022-08-22T03:02:28.253Z,13.97
2022-08-22T03:03:28.294Z,13.87
2022-08-22T03:04:28.291Z,13.83
2022-08-22T03:05:28.309Z,13.87
2022-08-22T03:06:28.329Z,13.93
2022-08-22T03:07:28.348Z,13.95
2022-08-22T03:08:29.299Z,13.91
2022-08-22T03:09:28.384Z,13.98
2022-08-22T03:10:28.402Z,13.87
2022-08-22T03:11:28.422Z,13.91
2022-08-22T03:12:28.453Z,13.87
2022-08-22T03:13:28.456Z,13.85
2022-08-22T03:14:28.476Z,14.00
2022-08-22T03:15:28.495Z,13.87
2022-08-22T03:16:28.512Z,13.91
2022-08-22T03:17:28.534Z,13.97
2022-08-22T03:18:28.555Z,13.91
2022-08-22T03:19:28.571Z,13.80
2022-08-22T03:20:28.589Z,13.94
2022-08-22T03:21:28.608Z,13.82
2022-08-22T03:22:28.626Z,13.85
2022-08-22T03:23:28.646Z,13.83
2022-08-22T03:24:28.666Z,13.95
2022-08-22T03:25:28.682Z,13.86
2022-08-22T03:26:28.702Z,13.89
2022-08-22T03:27:33.225Z,13.94
2022-08-22T03:28:28.738Z,13.85
2022-08-22T03:29:28.755Z,13.87
2022-08-22T03:30:28.774Z,13.97
2022-08-22T03:31:28.793Z,13.86
2022-08-22T03:32:28.813Z,13.83
2022-08-22T03:33:28.830Z,13.86
2022-08-22T03:34:28.848Z,13.93
2022-08-22T03:35:28.868Z,13.85
2022-08-22T03:36:28.887Z,13.82
2022-08-22T03:37:28.906Z,13.87
2022-08-22T03:38:28.925Z,13.93
2022-08-22T03:39:28.944Z,13.89
2022-08-22T03:40:31.825Z,13.93
2022-08-22T03:41:28.979Z,13.83
2022-08-22T03:42:28.998Z,13.83
2022-08-22T03:43:29.019Z,13.87
2022-08-22T03:44:29.037Z,13.82
2022-08-22T03:45:29.053Z,13.89
2022-08-22T03:46:29.073Z,13.89
2022-08-22T03:47:29.094Z,13.82
2022-08-22T03:48:29.110Z,13.93
2022-08-22T03:49:29.131Z,13.98
2022-08-22T03:50:29.148Z,13.95
2022-08-22T03:51:29.167Z,13.95
2022-08-22T03:52:29.182Z,13.97
2022-08-22T03:53:29.203Z,14.03
2022-08-22T03:54:30.659Z,14.01
2022-08-22T03:55:29.241Z,14.03
2022-08-22T03:56:29.262Z,14.05
2022-08-22T03:57:29.278Z,14.07
2022-08-22T03:58:29.296Z,14.08
2022-08-22T03:59:29.317Z,14.07
2022-08-22T04:00:29.382Z,14.08
2022-08-22T04:01:29.352Z,14.13
2022-08-22T04:02:42.953Z,14.15
2022-08-22T04:03:29.391Z,14.19
2022-08-22T04:04:29.409Z,14.13
2022-08-22T04:05:29.430Z,14.15
2022-08-22T04:06:29.453Z,14.22
2022-08-22T04:07:32.037Z,14.20
2022-08-22T04:08:29.484Z,14.22
2022-08-22T04:09:29.503Z,14.16
2022-08-22T04:10:29.536Z,14.13
2022-08-22T04:11:29.550Z,14.13
2022-08-22T04:12:29.560Z,14.16
2022-08-22T04:13:29.581Z,14.25
2022-08-22T04:14:29.605Z,14.16
2022-08-22T04:15:29.621Z,14.15
2022-08-22T04:16:29.637Z,14.25
2022-08-22T04:17:29.654Z,14.15
2022-08-22T04:18:30.251Z,14.23
2022-08-22T04:19:29.692Z,14.33
2022-08-22T04:20:29.711Z,14.12
2022-08-22T04:21:29.728Z,14.16
2022-08-22T04:22:29.747Z,14.30
2022-08-22T04:23:29.767Z,14.22
2022-08-22T04:24:29.787Z,14.18
2022-08-22T04:25:29.808Z,14.28
2022-08-22T04:26:29.826Z,14.23
2022-08-22T04:27:29.844Z,14.19
2022-08-22T04:28:29.864Z,14.22
2022-08-22T04:29:29.881Z,14.18
2022-08-22T04:30:29.899Z,14.25
2022-08-22T04:31:29.922Z,14.28
2022-08-22T04:32:29.938Z,14.25
2022-08-22T04:33:29.955Z,14.25
2022-08-22T04:34:29.978Z,14.36
2022-08-22T04:35:29.996Z,14.26
2022-08-22T04:36:30.014Z,14.37
2022-08-22T04:37:30.032Z,14.38
2022-08-22T04:38:30.051Z,14.45
2022-08-22T04:39:30.069Z,14.36
2022-08-22T04:40:30.090Z,14.40
2022-08-22T04:41:30.109Z,14.43
2022-08-22T04:42:32.851Z,14.49
2022-08-22T04:43:30.146Z,14.45
2022-08-22T04:44:30.167Z,14.51
2022-08-22T04:45:30.185Z,14.56
2022-08-22T04:46:32.097Z,14.56
2022-08-22T04:47:30.223Z,14.58
2022-08-22T04:48:30.242Z,14.56
2022-08-22T04:49:30.262Z,14.61
2022-08-22T04:50:30.281Z,14.52
2022-08-22T04:51:30.299Z,14.58
2022-08-22T04:52:30.323Z,14.61
2022-08-22T04:53:30.338Z,14.63
2022-08-22T04:54:30.356Z,14.56
2022-08-22T04:55:30.376Z,14.67
2022-08-22T04:56:30.399Z,14.68
2022-08-22T04:57:30.413Z,14.66
2022-08-22T04:58:30.435Z,14.73
2022-08-22T04:59:30.452Z,14.74
2022-08-22T05:00:30.473Z,14.77
2022-08-22T05:01:30.630Z,14.82
2022-08-22T05:02:30.513Z,14.78
2022-08-22T05:03:30.531Z,14.78
2022-08-22T05:04:30.552Z,14.78
2022-08-22T05:05:30.571Z,14.85
2022-08-22T05:06:30.590Z,14.92
2022-08-22T05:07:34.772Z,14.87
2022-08-22T05:08:30.631Z,14.86
2022-08-22T05:09:30.646Z,14.92
2022-08-22T05:10:30.668Z,14.93
2022-08-22T05:11:30.686Z,14.99
2022-08-22T05:12:32.819Z,14.97
2022-08-22T05:13:30.725Z,15.04
2022-08-22T05:14:30.745Z,15.02
2022-08-22T05:15:30.763Z,15.04
2022-08-22T05:16:30.783Z,15.07
2022-08-22T05:17:30.803Z,15.11
2022-08-22T05:18:30.825Z,15.12
2022-08-22T05:19:32.288Z,15.05
2022-08-22T05:20:30.862Z,15.11
2022-08-22T05:21:30.883Z,15.04
2022-08-22T05:22:30.901Z,15.19
2022-08-22T05:23:30.919Z,15.19
2022-08-22T05:24:30.942Z,15.19
2022-08-22T05:25:30.960Z,15.27
2022-08-22T05:26:30.979Z,15.23
2022-08-22T05:27:30.999Z,15.25
2022-08-22T05:28:31.019Z,15.32
2022-08-22T05:29:31.039Z,15.36
2022-08-22T05:30:31.058Z,15.32
2022-08-22T05:31:31.080Z,15.39
2022-08-22T05:32:31.100Z,15.44
2022-08-22T05:33:31.117Z,15.50
2022-08-22T05:34:31.138Z,15.59
2022-08-22T05:35:31.158Z,15.65
2022-08-22T05:36:31.179Z,15.67
2022-08-22T05:37:31.198Z,15.72
2022-08-22T05:38:31.218Z,15.66
2022-08-22T05:39:31.238Z,15.73
2022-08-22T05:40:31.258Z,15.80
2022-08-22T05:41:31.279Z,15.81
2022-08-22T05:42:31.303Z,15.90
2022-08-22T05:43:31.319Z,15.91
2022-08-22T05:44:31.340Z,15.92
2022-08-22T05:45:31.361Z,15.94
2022-08-22T05:46:31.380Z,15.98
2022-08-22T05:47:31.412Z,16.05
2022-08-22T05:48:31.421Z,16.13
2022-08-22T05:49:31.439Z,16.16
2022-08-22T05:50:31.472Z,16.12
2022-08-22T05:51:31.485Z,16.18
2022-08-22T05:52:31.505Z,16.25
2022-08-22T05:53:31.525Z,16.28
2022-08-22T05:54:34.459Z,16.31
2022-08-22T05:55:31.564Z,16.26
2022-08-22T05:56:31.586Z,16.37
2022-08-22T05:57:31.605Z,16.37
2022-08-22T05:58:31.630Z,16.47
2022-08-22T05:59:31.647Z,16.51
2022-08-22T06:00:31.668Z,16.54
2022-08-22T06:01:31.789Z,16.59
2022-08-22T06:02:31.710Z,16.64
2022-08-22T06:03:31.730Z,16.68
2022-08-22T06:04:31.751Z,16.73
2022-08-22T06:05:31.770Z,16.89
2022-08-22T06:06:31.798Z,16.89
2022-08-22T06:07:31.815Z,16.99
2022-08-22T06:08:31.837Z,17.05
2022-08-22T06:09:35.246Z,17.07
2022-08-22T06:10:31.878Z,17.10
2022-08-22T06:11:33.653Z,17.20
2022-08-22T06:12:31.919Z,17.24
2022-08-22T06:13:31.939Z,17.28
2022-08-22T06:14:32.689Z,17.34
2022-08-22T06:15:31.984Z,17.47
2022-08-22T06:16:32.012Z,17.39
2022-08-22T06:17:32.028Z,17.54
2022-08-22T06:18:32.048Z,17.54
2022-08-22T06:19:32.071Z,17.59
2022-08-22T06:20:32.094Z,17.65
2022-08-22T06:21:37.175Z,17.65
2022-08-22T06:22:32.135Z,17.73
2022-08-22T06:23:32.156Z,17.79
2022-08-22T06:24:32.179Z,17.90
2022-08-22T06:25:32.200Z,17.95
2022-08-22T06:26:32.222Z,17.94
2022-08-22T06:27:32.247Z,18.02
2022-08-22T06:28:32.268Z,18.08
2022-08-22T06:29:32.286Z,18.15
2022-08-22T06:30:32.309Z,18.13
2022-08-22T06:31:32.331Z,18.24
2022-08-22T06:32:59.036Z,18.41
2022-08-22T06:33:32.374Z,18.33
2022-08-22T06:34:32.398Z,18.36
2022-08-22T06:35:32.420Z,18.34
2022-08-22T06:36:32.448Z,18.49
2022-08-22T06:37:32.463Z,18.51
2022-08-22T06:38:32.488Z,18.53
2022-08-22T06:39:32.509Z,18.53
2022-08-22T06:40:32.534Z,18.58
2022-08-22T06:41:32.554Z,18.71
2022-08-22T06:42:32.576Z,18.78
2022-08-22T06:43:32.599Z,18.78
2022-08-22T06:44:32.624Z,18.83
2022-08-22T06:45:32.642Z,18.94
2022-08-22T06:46:32.665Z,18.98
2022-08-22T06:47:32.688Z,19.08
2022-08-22T06:48:32.710Z,19.12
2022-08-22T06:49:32.733Z,19.24
2022-08-22T06:50:32.753Z,19.20
2022-08-22T06:51:32.778Z,19.29
2022-08-22T06:52:32.801Z,19.37
2022-08-22T06:53:32.823Z,19.37
2022-08-22T06:54:34.459Z,19.47
2022-08-22T06:55:32.869Z,19.55
2022-08-22T06:56:32.894Z,19.57
2022-08-22T06:57:32.913Z,19.60
2022-08-22T06:58:33.935Z,19.70
2022-08-22T06:59:32.959Z,19.67
2022-08-22T07:00:32.984Z,19.66
2022-08-22T07:01:33.076Z,19.79
2022-08-22T07:02:33.030Z,19.74
2022-08-22T07:03:33.052Z,19.87
2022-08-22T07:04:33.074Z,19.93
2022-08-22T07:05:33.099Z,20.00
2022-08-22T07:06:33.121Z,20.07
2022-08-22T07:07:33.146Z,20.15
2022-08-22T07:08:37.179Z,20.26
2022-08-22T07:09:33.194Z,20.39
2022-08-22T07:10:33.213Z,20.39
2022-08-22T07:11:33.240Z,20.56
2022-08-22T07:12:33.262Z,20.68
2022-08-22T07:13:33.283Z,20.75
2022-08-22T07:14:33.308Z,20.80
2022-08-22T07:15:33.334Z,20.85
2022-08-22T07:16:33.357Z,20.93
2022-08-22T07:17:34.546Z,21.10
2022-08-22T07:18:33.411Z,21.19
2022-08-22T07:19:33.424Z,21.22
2022-08-22T07:20:33.449Z,21.29
2022-08-22T07:21:36.165Z,21.28
2022-08-22T07:22:33.496Z,21.43
2022-08-22T07:23:33.520Z,21.47
2022-08-22T07:24:33.544Z,21.56
2022-08-22T07:25:33.568Z,21.54
2022-08-22T07:26:33.595Z,21.62
2022-08-22T07:27:33.616Z,21.72
2022-08-22T07:28:36.965Z,21.83
2022-08-22T07:29:33.663Z,21.84
2022-08-22T07:30:33.688Z,22.00
2022-08-22T07:31:33.712Z,22.00
2022-08-22T07:32:33.738Z,22.07
2022-08-22T07:33:33.761Z,22.14
2022-08-22T07:34:33.786Z,22.15
2022-08-22T07:35:33.812Z,22.19
2022-08-22T07:36:33.837Z,22.30
2022-08-22T07:37:33.858Z,22.34
2022-08-22T07:38:33.882Z,22.38
2022-08-22T07:39:33.909Z,22.38
2022-08-22T07:40:33.934Z,22.55
2022-08-22T07:41:33.957Z,22.44
2022-08-22T07:42:33.984Z,22.63
2022-08-22T07:43:34.008Z,22.63
2022-08-22T07:44:34.035Z,22.61
2022-08-22T07:45:34.058Z,22.73
2022-08-22T07:46:34.082Z,22.77
2022-08-22T07:47:34.107Z,22.92
2022-08-22T07:48:38.265Z,22.92
2022-08-22T07:49:34.157Z,23.02
2022-08-22T07:50:34.182Z,23.06
2022-08-22T07:51:34.215Z,23.17
2022-08-22T07:52:34.234Z,23.20
2022-08-22T07:53:34.261Z,23.44
2022-08-22T07:54:34.282Z,23.28
2022-08-22T07:55:34.309Z,23.40
2022-08-22T07:56:34.333Z,23.58
2022-08-22T07:57:34.358Z,23.67
2022-08-22T07:58:34.385Z,23.77
2022-08-22T07:59:34.411Z,23.77
2022-08-22T08:00:34.436Z,23.84
2022-08-22T08:01:34.534Z,23.92
2022-08-22T08:02:34.487Z,24.09
2022-08-22T08:03:34.514Z,24.11
2022-08-22T08:04:39.516Z,24.21
2022-08-22T08:05:34.565Z,24.26
2022-08-22T08:06:34.589Z,24.38
2022-08-22T08:07:34.623Z,24.40
2022-08-22T08:08:34.646Z,24.55
2022-08-22T08:09:34.671Z,24.66
2022-08-22T08:10:34.697Z,24.75
2022-08-22T08:11:34.723Z,24.66
2022-08-22T08:12:34.750Z,24.75
2022-08-22T08:13:34.774Z,24.77
2022-08-22T08:14:34.803Z,24.79
2022-08-22T08:15:34.830Z,24.92
2022-08-22T08:16:34.857Z,24.84
2022-08-22T08:17:34.882Z,24.79
2022-08-22T08:18:34.908Z,24.75
2022-08-22T08:19:34.941Z,24.82
2022-08-22T08:20:34.966Z,24.85
2022-08-22T08:21:34.991Z,24.82
2022-08-22T08:22:35.017Z,24.86
2022-08-22T08:23:37.911Z,24.88
2022-08-22T08:24:41.264Z,24.93
2022-08-22T08:25:35.099Z,24.93
2022-08-22T08:26:35.123Z,24.89
2022-08-22T08:27:35.150Z,25.00
2022-08-22T08:28:35.177Z,24.93
2022-08-22T08:29:35.199Z,24.97
2022-08-22T08:30:35.227Z,24.89
2022-08-22T08:31:35.254Z,24.88
2022-08-22T08:32:35.289Z,24.92
2022-08-22T08:33:35.312Z,24.94
2022-08-22T08:34:35.434Z,25.11
2022-08-22T08:35:42.297Z,25.06
2022-08-22T08:36:35.387Z,25.12
2022-08-22T08:37:35.411Z,25.14
2022-08-22T08:38:35.439Z,25.18
2022-08-22T08:39:35.741Z,25.21
2022-08-22T08:40:35.492Z,25.22
2022-08-22T08:41:35.518Z,25.21
2022-08-22T08:42:35.549Z,25.26
2022-08-22T08:43:35.572Z,25.26
2022-08-22T08:44:35.599Z,25.19
2022-08-22T08:45:35.625Z,25.24
2022-08-22T08:46:35.650Z,25.19
2022-08-22T08:47:35.677Z,25.22
2022-08-22T08:48:35.705Z,25.18
2022-08-22T08:49:35.729Z,25.22
2022-08-22T08:50:35.758Z,25.19
2022-08-22T08:51:35.785Z,25.22
2022-08-22T08:52:35.811Z,25.16
2022-08-22T08:53:35.834Z,25.22
2022-08-22T08:54:35.865Z,25.25
2022-08-22T08:55:35.889Z,25.31
2022-08-22T08:56:35.917Z,25.31
2022-08-22T08:57:36.019Z,25.29
2022-08-22T08:58:35.967Z,25.40
2022-08-22T08:59:35.995Z,25.40
2022-08-22T09:00:36.036Z,25.40
2022-08-22T09:01:36.186Z,25.43
2022-08-22T09:02:36.749Z,25.54
2022-08-22T09:03:36.100Z,25.55
2022-08-22T09:04:36.128Z,25.55
2022-08-22T09:05:36.154Z,25.59
2022-08-22T09:06:36.180Z,25.52
2022-08-22T09:07:36.211Z,25.54
2022-08-22T09:08:36.234Z,25.62
2022-08-22T09:09:36.259Z,25.63
2022-08-22T09:10:36.286Z,25.74
2022-08-22T09:11:36.313Z,25.67
2022-08-22T09:12:36.341Z,25.74
2022-08-22T09:13:40.918Z,25.74
2022-08-22T09:14:36.394Z,25.78
2022-08-22T09:15:37.559Z,25.80
2022-08-22T09:16:36.446Z,25.83
2022-08-22T09:17:36.473Z,25.83
2022-08-22T09:18:36.501Z,25.91
2022-08-22T09:19:36.528Z,25.91
2022-08-22T09:20:36.554Z,25.81
2022-08-22T09:21:36.584Z,25.85
2022-08-22T09:22:50.587Z,25.93
2022-08-22T09:23:36.637Z,25.95
2022-08-22T09:24:36.664Z,26.10
2022-08-22T09:25:38.597Z,26.06
2022-08-22T09:26:36.714Z,26.11
2022-08-22T09:27:36.742Z,26.10
2022-08-22T09:28:36.767Z,26.15
2022-08-22T09:30:36.823Z,26.23
2022-08-22T09:31:51.967Z,26.16
2022-08-22T09:32:36.877Z,26.31
2022-08-22T09:33:36.905Z,26.23
2022-08-22T09:34:36.934Z,26.26
2022-08-22T09:35:36.960Z,26.24
2022-08-22T09:36:36.988Z,26.24
2022-08-22T09:37:37.013Z,26.27
2022-08-22T09:38:37.047Z,26.27
2022-08-22T09:39:37.138Z,26.22
2022-08-22T09:40:37.111Z,26.29
2022-08-22T09:41:37.122Z,26.23
2022-08-22T09:42:37.149Z,26.31
2022-08-22T09:43:37.621Z,26.36
2022-08-22T09:44:39.403Z,26.30
2022-08-22T09:45:37.234Z,26.29
2022-08-22T09:46:37.259Z,26.33
2022-08-22T09:47:39.278Z,26.24
2022-08-22T09:48:37.334Z,26.37
2022-08-22T09:49:37.339Z,26.34
2022-08-22T09:50:37.369Z,26.37
2022-08-22T09:51:37.395Z,26.34
2022-08-22T09:52:37.423Z,26.44
2022-08-22T09:53:37.479Z,26.51
2022-08-22T09:54:37.476Z,26.49
2022-08-22T09:55:37.505Z,26.48
2022-08-22T09:56:37.532Z,26.53
2022-08-22T09:57:37.557Z,26.53
2022-08-22T09:58:41.617Z,26.60
2022-08-22T09:59:37.614Z,26.64
2022-08-22T10:00:37.639Z,26.74
2022-08-22T10:01:37.693Z,26.73
2022-08-22T10:02:37.695Z,26.76
2022-08-22T10:03:37.722Z,26.83
2022-08-22T10:04:37.750Z,26.76
2022-08-22T10:05:43.577Z,26.83
2022-08-22T10:06:37.804Z,26.98
2022-08-22T10:07:37.831Z,26.93
2022-08-22T10:08:37.860Z,26.89
2022-08-22T10:09:37.887Z,26.93
2022-08-22T10:10:37.914Z,26.98
2022-08-22T10:11:38.777Z,26.98
2022-08-22T10:12:37.971Z,27.04
2022-08-22T10:13:38.053Z,27.08
2022-08-22T10:14:38.027Z,27.01
2022-08-22T10:15:38.052Z,27.10
2022-08-22T10:16:38.084Z,27.19
2022-08-22T10:17:40.840Z,27.23
2022-08-22T10:18:52.502Z,27.26
2022-08-22T10:19:38.275Z,27.26
2022-08-22T10:20:38.193Z,27.30
2022-08-22T10:21:38.223Z,27.37
2022-08-22T10:22:38.254Z,27.47
2022-08-22T10:23:38.277Z,27.52
2022-08-22T10:24:43.710Z,27.47
2022-08-22T10:25:42.164Z,27.64
2022-08-22T10:26:39.045Z,27.79
2022-08-22T10:27:38.391Z,27.82
2022-08-22T10:28:38.418Z,27.88
2022-08-22T10:29:38.451Z,27.97
2022-08-22T10:30:38.477Z,28.08
2022-08-22T10:31:58.384Z,28.19
2022-08-22T10:32:38.537Z,28.20
2022-08-22T10:33:39.813Z,28.37
2022-08-22T10:34:38.594Z,28.35
2022-08-22T10:35:38.628Z,28.47
2022-08-22T10:36:38.656Z,28.57
2022-08-22T10:37:39.555Z,28.68
2022-08-22T10:38:46.319Z,28.70
2022-08-22T10:39:38.783Z,28.80
2022-08-22T10:40:38.775Z,28.83
2022-08-22T10:41:38.809Z,28.86
2022-08-22T10:42:38.838Z,28.97
2022-08-22T10:43:38.865Z,29.03
2022-08-22T10:44:38.895Z,29.02
2022-08-22T10:45:38.926Z,29.18
2022-08-22T10:46:39.045Z,29.20
2022-08-22T10:47:38.987Z,29.24
2022-08-22T10:48:39.019Z,29.21
2022-08-22T10:49:39.048Z,29.12
2022-08-22T10:50:39.079Z,29.18
2022-08-22T10:51:39.109Z,29.18
2022-08-22T10:52:39.143Z,29.20
2022-08-22T10:53:39.170Z,29.28
2022-08-22T10:54:39.212Z,29.27
2022-08-22T10:55:39.237Z,29.30
2022-08-22T10:56:39.278Z,29.31
2022-08-22T10:57:39.293Z,29.34
2022-08-22T10:58:39.325Z,29.35
2022-08-22T10:59:39.383Z,29.47
2022-08-22T11:00:46.230Z,29.50
2022-08-22T11:01:41.841Z,29.49
2022-08-22T11:02:39.448Z,29.47
2022-08-22T11:03:39.478Z,29.58
2022-08-22T11:04:39.508Z,29.67
2022-08-22T11:05:39.537Z,29.62
2022-08-22T11:06:39.570Z,29.64
2022-08-22T11:07:39.600Z,29.67
2022-08-22T11:08:39.630Z,29.61
2022-08-22T11:09:39.662Z,29.57
2022-08-22T11:10:39.694Z,29.61
2022-08-22T11:11:39.722Z,29.58
2022-08-22T11:12:41.650Z,29.74
2022-08-22T11:13:43.333Z,29.71
2022-08-22T11:14:39.815Z,29.80
2022-08-22T11:15:39.847Z,29.76
2022-08-22T11:16:41.627Z,29.83
2022-08-22T11:17:42.643Z,29.81
2022-08-22T11:18:39.938Z,29.94
2022-08-22T11:19:39.968Z,30.01
2022-08-22T11:20:39.998Z,30.08
2022-08-22T11:21:40.029Z,30.08
2022-08-22T11:22:40.060Z,30.23
2022-08-22T11:23:40.094Z,30.35
2022-08-22T11:24:46.615Z,30.31
2022-08-22T11:25:40.154Z,30.29
2022-08-22T11:26:47.388Z,30.32
2022-08-22T11:27:40.977Z,30.32
2022-08-22T11:28:40.247Z,30.35
2022-08-22T11:29:41.193Z,30.54
2022-08-22T11:30:44.906Z,30.55
2022-08-22T11:31:40.341Z,30.71
2022-08-22T11:32:40.374Z,30.88
2022-08-22T11:33:47.126Z,30.92
2022-08-22T11:34:40.438Z,30.93
2022-08-22T11:35:40.471Z,30.92
2022-08-22T11:36:40.503Z,30.81
2022-08-22T11:37:42.599Z,30.91
2022-08-22T11:38:40.568Z,30.74
2022-08-22T11:39:40.654Z,30.63
2022-08-22T11:40:40.630Z,30.59
2022-08-22T11:41:40.665Z,30.61
2022-08-22T11:42:47.358Z,30.44
2022-08-22T11:43:40.721Z,30.32
2022-08-22T11:44:50.504Z,30.31
2022-08-22T11:45:40.785Z,30.32
2022-08-22T11:46:40.814Z,30.24
2022-08-22T11:47:40.849Z,30.21
2022-08-22T11:48:40.882Z,30.26
2022-08-22T11:49:40.906Z,30.21
2022-08-22T11:50:42.205Z,30.11
2022-08-22T11:51:40.970Z,29.98
2022-08-22T11:52:40.998Z,29.96
2022-08-22T11:53:41.030Z,29.95
2022-08-22T11:54:42.274Z,29.94
2022-08-22T11:55:41.090Z,29.96
2022-08-22T11:56:41.560Z,29.94
2022-08-22T11:57:44.309Z,29.98
2022-08-22T11:58:41.188Z,29.83
2022-08-22T11:59:43.192Z,29.86
2022-08-22T12:00:41.924Z,29.86
2022-08-22T12:01:41.316Z,29.76
2022-08-22T12:02:41.344Z,29.71
2022-08-22T12:03:41.332Z,29.55
2022-08-22T12:04:43.968Z,29.44
2022-08-22T12:05:41.392Z,29.40
2022-08-22T12:06:41.420Z,29.30
2022-08-22T12:07:41.451Z,29.30
2022-08-22T12:08:41.481Z,29.13
2022-08-22T12:09:41.509Z,29.06
2022-08-22T12:10:41.541Z,29.07
2022-08-22T12:11:41.568Z,28.97
2022-08-22T12:12:42.225Z,29.07
2022-08-22T12:13:41.627Z,28.96
2022-08-22T12:14:42.864Z,29.06
2022-08-22T12:15:41.688Z,29.06
2022-08-22T12:16:41.715Z,28.97
2022-08-22T12:17:55.576Z,28.93
2022-08-22T12:18:41.772Z,28.86
2022-08-22T12:19:58.839Z,28.77
2022-08-22T12:20:45.484Z,28.72
2022-08-22T12:21:41.858Z,28.72
2022-08-22T12:22:44.453Z,28.78
2022-08-22T12:23:49.443Z,28.67
2022-08-22T12:24:41.951Z,28.55
2022-08-22T12:25:44.423Z,28.52
2022-08-22T12:26:42.004Z,28.57
2022-08-22T12:27:42.032Z,28.46
2022-08-22T12:28:42.062Z,28.41
2022-08-22T12:29:45.026Z,28.34
2022-08-22T12:30:42.118Z,28.34
2022-08-22T12:31:42.147Z,28.35
2022-08-22T12:32:43.999Z,28.27
2022-08-22T12:33:42.204Z,28.35
2022-08-22T12:34:42.231Z,28.34
2022-08-22T12:35:42.259Z,28.37
2022-08-22T12:36:42.289Z,28.41
2022-08-22T12:37:48.276Z,28.46
2022-08-22T12:38:42.349Z,28.53
2022-08-22T12:39:42.402Z,28.56
2022-08-22T12:40:43.810Z,28.55
2022-08-22T12:41:46.629Z,28.60
2022-08-22T12:42:42.459Z,28.65
2022-08-22T12:43:42.830Z,28.68
2022-08-22T12:44:42.517Z,28.75
2022-08-22T12:45:42.546Z,28.70